Terminal Aerodrome Forecast
Issued by NWS

Current Version | Previous Version | Text Only | Print | Product List | Glossary On
Versions: 1 2 3 4 5 6 7 8 9 10 11 12 13 14 15 16 17
000
FTUS41 KCAR 261459 AAC
TAFHUL
TAF AMD
KHUL 261459Z 2615/2712 12007KT 6SM -RA BR OVC006
     FM261600 15005KT 5SM -RA OVC008
     FM262000 13006KT 2SM -DZ BR OVC005=

USA.gov is the U.S. government's official web portal to all federal, state and local government web resources and services.